Polson, MT (59860)

6:30 AM MDT on May 25, 2015 (GMT -0600)
CCS20 | | Change Station
CLOSE
Current Station
Personal Weather Station
Location: Polson, MT
Elevation: 2960 ft
Nearby Weather Stations

Elev 2960 ft 47.69 °N, 114.14 °W | Updated 5 seconds ago

Clear
Clear
49.6 °F
Feels Like 50 °F
N
0.0
Wind Variable Wind from ESE
Gusts 0.0 mph

Today
High -- | Low -- °F
--% Chance of Precip.
Yesterday
High -- | Low -- °F
Precip. -- in
5:48 AM 9:19 PM
Waxing Crescent, 48% visible
Pressure 29.91 in
Visibility 10.0 miles
Clouds Clear
Windchill 50 °F
Dew Point 41 °F
Humidity 72%
Rainfall 0.00 in
Snow Depth Not available.
UV 0 out of 12
Pollen 7.80 out of 12
Air Quality Not available.
Flu Activity Sporadic
METAR KMSO 251153Z AUTO 12004KT 10SM CLR 07/04 A2993 RMK AO2 SLP127 T00720039 10144 20056 53003

More Conditions Fewer Conditions

Pressure 29.91 in
Visibility 10.0 miles
Clouds Clear
Windchill 50 °F
Dew Point 41 °F
Humidity 72%
Rainfall 0.00 in
Snow Depth Not available.
UV 0 out of 12
Pollen 7.80 out of 12
Air Quality Not available.
Flu Activity Sporadic
METAR KMSO 251153Z AUTO 12004KT 10SM CLR 07/04 A2993 RMK AO2 SLP127 T00720039 10144 20056 53003

More Conditions Fewer Conditions

10-Day Weather Forecast

Almanac

Astronomy

May. 25, 2015 Rise Set
Actual Time
Civil Twilight
Nautical Twilight
Astronomical Twilight
Moon
Length of Visible Light
Length of Day
Tomorrow will be .
, % of the Moon is Illuminated

Today's Extremes

State Highs State Lows

Community

WunderPhotos

Upload Photos

1,823,986 photos uploaded!

WunderBlogs® & News

Nearby

Air Quality

  Air Quality AQ Index Pollutant
Not available.

Snow Depth

Station Depth Elevation

Earthquake Activity

City Distance Mag. Time & Date
Minimum magnitude displayed is 2.5.

Coastal Water Temperatures

Place Temperature

Stations

Nearby Weather Stations

Station Location Temp. Windchill Dew Point Humidity Wind Precip. Elev Updated Type